createdAt,value
2022-08-28T00:01:56.384Z,19.90
2022-08-28T00:04:30.606Z,19.90
2022-08-28T00:07:05.395Z,19.90
2022-08-28T00:09:39.455Z,19.90
2022-08-28T00:12:14.656Z,19.82
2022-08-28T00:14:48.550Z,19.80
2022-08-28T00:17:22.489Z,19.80
2022-08-28T00:19:56.629Z,19.80
2022-08-28T00:22:30.722Z,19.80
2022-08-28T00:25:04.805Z,19.80
2022-08-28T00:27:55.285Z,19.80
2022-08-28T00:30:33.654Z,19.80
2022-08-28T00:33:13.262Z,19.80
2022-08-28T00:35:48.079Z,19.80
2022-08-28T00:38:25.681Z,19.80
2022-08-28T00:41:03.992Z,19.76
2022-08-28T00:43:44.071Z,19.70
2022-08-28T00:46:22.688Z,19.64
2022-08-28T00:48:57.055Z,19.66
2022-08-28T00:51:50.052Z,19.70
2022-08-28T00:54:24.866Z,19.70
2022-08-28T00:57:00.587Z,19.70
2022-08-28T00:59:36.471Z,19.70
2022-08-28T01:02:11.643Z,19.78
2022-08-28T01:04:46.493Z,19.70
2022-08-28T01:07:23.345Z,19.70
2022-08-28T01:09:59.485Z,19.70
2022-08-28T01:12:36.870Z,19.70
2022-08-28T01:15:17.526Z,19.70
2022-08-28T01:17:56.557Z,19.70
2022-08-28T01:20:36.426Z,19.70
2022-08-28T01:23:21.568Z,19.70
2022-08-28T01:25:55.537Z,19.70
2022-08-28T01:28:29.683Z,19.70
2022-08-28T01:31:05.744Z,19.70
2022-08-28T01:33:42.295Z,19.70
2022-08-28T01:36:18.468Z,19.70
2022-08-28T01:39:01.915Z,19.70
2022-08-28T01:41:35.792Z,19.62
2022-08-28T01:44:09.886Z,19.60
2022-08-28T01:46:45.421Z,19.60
2022-08-28T01:49:20.050Z,19.68
2022-08-28T01:51:54.746Z,19.70
2022-08-28T01:54:29.317Z,19.70
2022-08-28T01:57:03.850Z,19.78
2022-08-28T01:59:37.899Z,19.80
2022-08-28T02:02:11.920Z,19.80
2022-08-28T02:04:48.178Z,19.80
2022-08-28T02:07:22.652Z,19.80
2022-08-28T02:09:56.595Z,19.80
2022-08-28T02:12:31.998Z,19.90
2022-08-28T02:15:07.551Z,19.90
2022-08-28T02:17:41.540Z,19.90
2022-08-28T02:20:17.028Z,19.90
2022-08-28T02:22:51.946Z,19.94
2022-08-28T02:25:27.278Z,20.00
2022-08-28T02:28:01.572Z,20.00
2022-08-28T02:30:35.511Z,20.06
2022-08-28T02:33:09.542Z,20.10
2022-08-28T02:35:44.673Z,20.10
2022-08-28T02:38:18.921Z,20.10
2022-08-28T02:40:52.911Z,20.10
2022-08-28T02:43:26.915Z,20.10
2022-08-28T02:46:00.867Z,20.16
2022-08-28T02:48:38.162Z,20.18
2022-08-28T02:51:15.795Z,20.20
2022-08-28T02:53:52.234Z,20.20
2022-08-28T02:56:26.236Z,20.20
2022-08-28T02:59:00.382Z,20.20
2022-08-28T03:01:34.983Z,20.20
2022-08-28T03:04:09.813Z,20.22
2022-08-28T03:06:44.032Z,20.26
2022-08-28T03:09:17.954Z,20.30
2022-08-28T03:11:54.028Z,20.30
2022-08-28T03:14:28.086Z,20.30
2022-08-28T03:17:02.625Z,20.30
2022-08-28T03:19:37.105Z,20.30
2022-08-28T03:22:10.887Z,20.30
2022-08-28T03:24:45.122Z,20.30
2022-08-28T03:27:19.063Z,20.30
2022-08-28T03:29:52.833Z,20.30
2022-08-28T03:32:26.907Z,20.40
2022-08-28T03:35:04.088Z,20.40
2022-08-28T03:37:38.195Z,20.38
2022-08-28T03:40:14.961Z,20.32
2022-08-28T03:42:53.295Z,20.32
2022-08-28T03:45:27.514Z,20.40
2022-08-28T03:48:01.402Z,20.40
2022-08-28T03:50:36.010Z,20.38
2022-08-28T03:53:09.830Z,20.40
2022-08-28T03:55:44.675Z,20.40
2022-08-28T03:58:19.494Z,20.40
2022-08-28T04:00:54.426Z,20.40
2022-08-28T04:03:29.366Z,20.40
2022-08-28T04:06:04.119Z,20.40
2022-08-28T04:08:37.952Z,20.40
2022-08-28T04:11:12.525Z,20.40
2022-08-28T04:13:46.360Z,20.48
2022-08-28T04:16:20.373Z,20.50
2022-08-28T04:18:54.583Z,20.50
2022-08-28T04:21:29.024Z,20.50
2022-08-28T04:24:04.951Z,20.50
2022-08-28T04:26:41.604Z,20.50
2022-08-28T04:29:16.154Z,20.50
2022-08-28T04:31:50.592Z,20.50
2022-08-28T04:34:24.481Z,20.50
2022-08-28T04:36:59.264Z,20.50
2022-08-28T04:39:33.108Z,20.50
2022-08-28T04:42:07.659Z,20.50
2022-08-28T04:44:41.907Z,20.50
2022-08-28T04:47:15.784Z,20.50
2022-08-28T04:49:49.944Z,20.50
2022-08-28T04:52:24.496Z,20.50
2022-08-28T04:54:58.398Z,20.50
2022-08-28T04:57:36.214Z,20.60
2022-08-28T05:00:13.840Z,20.60
2022-08-28T05:02:47.608Z,20.60
2022-08-28T05:05:21.816Z,20.60
2022-08-28T05:07:57.414Z,20.60
2022-08-28T05:10:31.429Z,20.62
2022-08-28T05:13:05.500Z,20.70
2022-08-28T05:15:44.649Z,20.70
2022-08-28T05:18:22.369Z,20.70
2022-08-28T05:20:56.413Z,20.80
2022-08-28T05:23:30.638Z,20.80
2022-08-28T05:26:04.893Z,20.80
2022-08-28T05:28:38.714Z,20.88
2022-08-28T05:31:18.849Z,20.90
2022-08-28T05:33:54.070Z,20.90
2022-08-28T05:36:32.606Z,20.90
2022-08-28T05:39:10.979Z,20.98
2022-08-28T05:41:47.328Z,21.00
2022-08-28T05:44:24.372Z,21.04
2022-08-28T05:46:58.842Z,21.10
2022-08-28T05:49:33.171Z,21.10
2022-08-28T05:52:07.462Z,21.10
2022-08-28T05:54:43.474Z,21.10
2022-08-28T05:57:17.304Z,21.10
2022-08-28T05:59:51.477Z,21.10
2022-08-28T06:02:25.388Z,21.20
2022-08-28T06:04:59.907Z,21.28
2022-08-28T06:07:34.880Z,21.30
2022-08-28T06:10:10.988Z,21.38
2022-08-28T06:12:44.647Z,21.40
2022-08-28T06:15:19.033Z,21.50
2022-08-28T06:17:53.653Z,21.52
2022-08-28T06:20:27.454Z,21.60
2022-08-28T06:23:01.201Z,21.70
2022-08-28T06:25:40.175Z,21.70
2022-08-28T06:28:15.263Z,21.80
2022-08-28T06:31:08.961Z,21.80
2022-08-28T06:33:43.033Z,21.90
2022-08-28T06:36:17.379Z,21.90
2022-08-28T06:38:51.530Z,22.02
2022-08-28T06:41:25.706Z,22.10
2022-08-28T06:43:59.823Z,22.20
2022-08-28T06:46:34.842Z,22.20
2022-08-28T06:49:12.609Z,22.20
2022-08-28T06:51:46.629Z,22.20
2022-08-28T06:54:23.291Z,22.30
2022-08-28T06:56:57.827Z,22.30
2022-08-28T06:59:31.991Z,22.30
2022-08-28T07:02:07.746Z,22.30
2022-08-28T07:04:41.849Z,22.40
2022-08-28T07:07:32.468Z,22.40
2022-08-28T07:10:09.835Z,22.50
2022-08-28T07:12:43.830Z,22.50
2022-08-28T07:15:18.462Z,22.62
2022-08-28T07:17:53.115Z,22.70
2022-08-28T07:20:27.166Z,22.90
2022-08-28T07:23:01.125Z,22.90
2022-08-28T07:25:35.237Z,22.96
2022-08-28T07:28:09.716Z,23.00
2022-08-28T07:30:44.160Z,23.00
2022-08-28T07:33:18.468Z,23.10
2022-08-28T07:35:52.808Z,23.20
2022-08-28T07:38:27.574Z,23.30
2022-08-28T07:41:02.357Z,23.22
2022-08-28T07:43:53.880Z,23.20
2022-08-28T07:46:27.859Z,23.20
2022-08-28T07:49:02.379Z,23.20
2022-08-28T07:51:36.928Z,23.10
2022-08-28T07:54:15.540Z,23.10
2022-08-28T07:56:53.771Z,23.20
2022-08-28T07:59:36.517Z,23.30
2022-08-28T08:02:12.466Z,23.30
2022-08-28T08:04:46.487Z,23.20
2022-08-28T08:07:20.694Z,23.20
2022-08-28T08:09:54.646Z,23.20
2022-08-28T08:12:34.648Z,23.30
2022-08-28T08:15:10.703Z,23.36
2022-08-28T08:17:46.214Z,23.40
2022-08-28T08:20:20.822Z,23.60
2022-08-28T08:22:54.888Z,23.80
2022-08-28T08:25:29.181Z,23.92
2022-08-28T08:28:08.668Z,24.10
2022-08-28T08:30:43.722Z,24.20
2022-08-28T08:33:17.713Z,24.20
2022-08-28T08:35:51.543Z,24.20
2022-08-28T08:38:26.269Z,24.10
2022-08-28T08:41:02.639Z,24.10
2022-08-28T08:43:57.355Z,24.12
2022-08-28T08:46:40.035Z,24.30
2022-08-28T08:49:22.601Z,24.50
2022-08-28T08:52:15.549Z,24.60
2022-08-28T08:55:07.369Z,24.80
2022-08-28T08:57:43.796Z,25.00
2022-08-28T09:00:21.142Z,25.20
2022-08-28T09:03:05.893Z,25.40
2022-08-28T09:05:56.287Z,25.30
2022-08-28T09:08:40.584Z,25.30
2022-08-28T09:11:31.708Z,25.20
2022-08-28T09:14:20.617Z,25.10
2022-08-28T09:17:02.173Z,25.00
2022-08-28T09:19:36.409Z,24.90
2022-08-28T09:22:10.324Z,24.92
2022-08-28T09:24:45.326Z,25.20
2022-08-28T09:27:30.729Z,25.40
2022-08-28T09:30:08.597Z,25.40
2022-08-28T09:32:45.435Z,25.40
2022-08-28T09:35:29.128Z,25.50
2022-08-28T09:38:23.470Z,25.80
2022-08-28T09:41:31.745Z,26.42
2022-08-28T09:44:05.897Z,27.30
2022-08-28T09:46:45.056Z,27.96
2022-08-28T09:49:26.397Z,28.64
2022-08-28T09:52:20.670Z,28.80
2022-08-28T09:54:57.864Z,28.70
2022-08-28T09:57:32.306Z,28.80
2022-08-28T10:00:07.900Z,28.90
2022-08-28T10:02:58.252Z,28.90
2022-08-28T10:05:43.520Z,29.00
2022-08-28T10:08:35.657Z,29.06
2022-08-28T10:11:25.574Z,29.10
2022-08-28T10:14:13.155Z,28.80
2022-08-28T10:17:00.435Z,28.48
2022-08-28T10:19:47.974Z,28.10
2022-08-28T10:22:37.563Z,27.80
2022-08-28T10:25:30.662Z,27.80
2022-08-28T10:28:31.835Z,27.90
2022-08-28T10:31:16.950Z,28.06
2022-08-28T10:34:14.533Z,28.10
2022-08-28T10:37:00.893Z,28.20
2022-08-28T10:39:49.035Z,28.30
2022-08-28T10:43:19.758Z,28.30
2022-08-28T10:45:55.117Z,28.22
2022-08-28T10:48:36.769Z,28.10
2022-08-28T10:51:30.140Z,28.30
2022-08-28T10:54:27.321Z,28.40
2022-08-28T10:57:15.959Z,28.50
2022-08-28T10:59:54.458Z,28.50
2022-08-28T11:02:32.259Z,28.50
2022-08-28T11:05:07.504Z,28.40
2022-08-28T11:07:48.261Z,28.20
2022-08-28T11:10:46.249Z,28.10
2022-08-28T11:13:50.469Z,28.06
2022-08-28T11:16:38.110Z,27.86
2022-08-28T11:19:52.463Z,27.70
2022-08-28T11:22:31.555Z,27.50
2022-08-28T11:25:17.978Z,27.30
2022-08-28T11:28:22.592Z,27.10
2022-08-28T11:31:35.972Z,26.90
2022-08-28T11:34:30.618Z,26.60
2022-08-28T11:37:06.644Z,26.32
2022-08-28T11:39:40.652Z,26.30
2022-08-28T11:42:41.884Z,26.56
2022-08-28T11:45:46.760Z,26.90
2022-08-28T11:48:52.323Z,27.40
2022-08-28T11:51:49.594Z,27.90
2022-08-28T11:54:47.176Z,28.42
2022-08-28T11:57:26.775Z,29.00
2022-08-28T12:00:13.147Z,29.10
2022-08-28T12:02:57.310Z,29.00
2022-08-28T12:05:57.747Z,28.68
2022-08-28T12:09:15.489Z,28.30
2022-08-28T12:12:09.593Z,28.00
2022-08-28T12:15:09.790Z,27.80
2022-08-28T12:18:01.527Z,27.60
2022-08-28T12:21:00.113Z,27.30
2022-08-28T12:23:43.375Z,26.80
2022-08-28T12:26:26.551Z,26.20
2022-08-28T12:29:04.018Z,25.78
2022-08-28T12:32:15.076Z,25.50
2022-08-28T12:35:04.609Z,25.30
2022-08-28T12:37:51.884Z,25.20
2022-08-28T12:40:33.389Z,25.10
2022-08-28T12:43:11.719Z,25.10
2022-08-28T12:45:55.667Z,25.20
2022-08-28T12:48:33.469Z,25.32
2022-08-28T12:51:13.901Z,25.50
2022-08-28T12:53:52.129Z,25.52
2022-08-28T12:56:30.307Z,25.70
2022-08-28T12:59:33.900Z,25.60
2022-08-28T13:02:11.434Z,25.70
2022-08-28T13:04:55.624Z,25.70
2022-08-28T13:07:33.397Z,25.60
2022-08-28T13:10:22.306Z,25.50
2022-08-28T13:13:15.489Z,25.28
2022-08-28T13:16:01.595Z,25.00
2022-08-28T13:19:15.504Z,24.70
2022-08-28T13:22:02.221Z,24.40
2022-08-28T13:24:49.038Z,24.20
2022-08-28T13:27:26.590Z,24.10
2022-08-28T13:30:08.658Z,23.94
2022-08-28T13:32:55.879Z,23.90
2022-08-28T13:35:42.929Z,23.80
2022-08-28T13:38:20.103Z,23.80
2022-08-28T13:40:59.456Z,23.70
2022-08-28T13:43:48.225Z,23.60
2022-08-28T13:46:22.383Z,23.50
2022-08-28T13:48:57.168Z,23.50
2022-08-28T13:51:31.874Z,23.60
2022-08-28T13:54:08.942Z,23.60
2022-08-28T13:56:45.419Z,23.60
2022-08-28T13:59:19.943Z,23.50
2022-08-28T14:02:16.245Z,23.40
2022-08-28T14:04:50.383Z,23.30
2022-08-28T14:07:24.763Z,23.30
2022-08-28T14:09:58.979Z,23.20
2022-08-28T14:12:34.593Z,23.10
2022-08-28T14:15:10.366Z,22.90
2022-08-28T14:17:44.822Z,22.76
2022-08-28T14:20:19.009Z,22.52
2022-08-28T14:22:53.401Z,22.30
2022-08-28T14:25:27.404Z,22.00
2022-08-28T14:28:01.442Z,21.76
2022-08-28T14:30:35.493Z,21.50
2022-08-28T14:33:09.401Z,21.30
2022-08-28T14:35:48.894Z,21.20
2022-08-28T14:38:22.820Z,21.00
2022-08-28T14:40:56.883Z,21.00
2022-08-28T14:43:32.038Z,20.90
2022-08-28T14:46:10.983Z,20.80
2022-08-28T14:48:45.389Z,20.72
2022-08-28T14:51:20.647Z,20.64
2022-08-28T14:53:55.088Z,20.58
2022-08-28T14:56:31.786Z,20.50
2022-08-28T14:59:12.275Z,20.50
2022-08-28T15:01:51.247Z,20.50
2022-08-28T15:04:29.326Z,20.50
2022-08-28T15:07:08.504Z,20.50
2022-08-28T15:09:45.491Z,20.40
2022-08-28T15:12:19.956Z,20.40
2022-08-28T15:14:57.386Z,20.50
2022-08-28T15:17:33.690Z,20.60
2022-08-28T15:20:11.592Z,20.80
2022-08-28T15:22:45.536Z,20.90
2022-08-28T15:25:19.530Z,21.00
2022-08-28T15:27:53.461Z,21.10
2022-08-28T15:30:27.514Z,21.20
2022-08-28T15:33:02.020Z,21.20
2022-08-28T15:35:37.238Z,21.20
2022-08-28T15:38:11.444Z,21.10
2022-08-28T15:41:03.151Z,21.00
2022-08-28T15:43:37.726Z,21.00
2022-08-28T15:46:16.649Z,21.00
2022-08-28T15:48:54.470Z,21.00
2022-08-28T15:51:29.786Z,21.10
2022-08-28T15:54:03.965Z,21.10
2022-08-28T15:56:40.091Z,21.08
2022-08-28T15:59:15.176Z,21.00
2022-08-28T16:01:49.526Z,21.00
2022-08-28T16:04:23.783Z,20.90
2022-08-28T16:07:00.611Z,20.90
2022-08-28T16:09:34.802Z,20.80
2022-08-28T16:12:09.481Z,20.80
2022-08-28T16:14:43.604Z,20.74
2022-08-28T16:17:17.574Z,20.70
2022-08-28T16:19:51.850Z,20.62
2022-08-28T16:22:25.968Z,20.66
2022-08-28T16:25:00.045Z,20.60
2022-08-28T16:27:34.496Z,20.60
2022-08-28T16:30:16.080Z,20.60
2022-08-28T16:32:51.105Z,20.60
2022-08-28T16:35:25.235Z,20.60
2022-08-28T16:37:59.506Z,20.60
2022-08-28T16:40:34.711Z,20.60
2022-08-28T16:43:11.841Z,20.60
2022-08-28T16:45:51.085Z,20.58
2022-08-28T16:48:27.904Z,20.50
2022-08-28T16:51:02.706Z,20.50
2022-08-28T16:53:45.019Z,20.50
2022-08-28T16:56:20.882Z,20.50
2022-08-28T16:58:56.080Z,20.50
2022-08-28T17:01:34.595Z,20.50
2022-08-28T17:04:15.290Z,20.50
2022-08-28T17:06:52.390Z,20.50
2022-08-28T17:09:28.152Z,20.46
2022-08-28T17:12:03.925Z,20.40
2022-08-28T17:14:39.007Z,20.40
2022-08-28T17:17:13.805Z,20.40
2022-08-28T17:19:47.733Z,20.40
2022-08-28T17:22:33.705Z,20.40
2022-08-28T17:25:14.279Z,20.30
2022-08-28T17:27:48.232Z,20.30
2022-08-28T17:30:23.703Z,20.28
2022-08-28T17:32:59.395Z,20.28
2022-08-28T17:35:33.979Z,20.20
2022-08-28T17:38:16.745Z,20.20
2022-08-28T17:40:51.066Z,20.20
2022-08-28T17:43:25.382Z,20.20
2022-08-28T17:45:59.513Z,20.20
2022-08-28T17:48:35.636Z,20.20
2022-08-28T17:51:10.436Z,20.20
2022-08-28T17:53:45.009Z,20.10
2022-08-28T17:56:19.322Z,20.10
2022-08-28T17:59:07.845Z,20.10
2022-08-28T18:01:45.033Z,20.10
2022-08-28T18:04:24.593Z,20.10
2022-08-28T18:06:58.961Z,20.06
2022-08-28T18:09:35.599Z,20.00
2022-08-28T18:12:12.839Z,20.00
2022-08-28T18:14:47.679Z,20.00
2022-08-28T18:17:22.589Z,20.00
2022-08-28T18:19:57.973Z,20.00
2022-08-28T18:22:33.209Z,20.00
2022-08-28T18:25:08.626Z,20.00
2022-08-28T18:27:45.642Z,20.00
2022-08-28T18:30:20.607Z,20.00
2022-08-28T18:32:55.718Z,20.00
2022-08-28T18:35:37.141Z,20.00
2022-08-28T18:38:15.146Z,20.00
2022-08-28T18:40:50.617Z,20.00
2022-08-28T18:43:24.918Z,19.96
2022-08-28T18:45:59.933Z,19.90
2022-08-28T18:48:35.355Z,19.90
2022-08-28T18:51:13.759Z,19.88
2022-08-28T18:53:48.336Z,19.80
2022-08-28T18:56:23.027Z,19.80
2022-08-28T18:58:59.263Z,19.76
2022-08-28T19:01:33.589Z,19.70
2022-08-28T19:04:10.264Z,19.70
2022-08-28T19:06:46.494Z,19.70
2022-08-28T19:09:20.923Z,19.70
2022-08-28T19:11:55.339Z,19.70
2022-08-28T19:14:31.548Z,19.70
2022-08-28T19:17:07.307Z,19.62
2022-08-28T19:19:41.308Z,19.62
2022-08-28T19:22:15.664Z,19.62
2022-08-28T19:24:52.756Z,19.62
2022-08-28T19:27:26.960Z,19.60
2022-08-28T19:30:01.402Z,19.60
2022-08-28T19:32:35.672Z,19.60
2022-08-28T19:35:11.655Z,19.60
2022-08-28T19:37:46.955Z,19.60
2022-08-28T19:40:22.025Z,19.60
2022-08-28T19:42:56.255Z,19.60
2022-08-28T19:45:30.891Z,19.60
2022-08-28T19:48:07.575Z,19.60
2022-08-28T19:50:42.627Z,19.60
2022-08-28T19:53:18.435Z,19.60
2022-08-28T19:55:53.614Z,19.60
2022-08-28T19:58:29.067Z,19.58
2022-08-28T20:01:04.007Z,19.58
2022-08-28T20:03:43.482Z,19.54
2022-08-28T20:06:18.504Z,19.52
2022-08-28T20:08:52.808Z,19.52
2022-08-28T20:11:30.683Z,19.52
2022-08-28T20:14:07.379Z,19.60
2022-08-28T20:16:45.354Z,19.56
2022-08-28T20:19:20.683Z,19.50
2022-08-28T20:21:54.920Z,19.50
2022-08-28T20:24:29.844Z,19.50
2022-08-28T20:27:04.021Z,19.50
2022-08-28T20:29:38.525Z,19.50
2022-08-28T20:32:12.634Z,19.50
2022-08-28T20:34:46.482Z,19.50
2022-08-28T20:37:20.892Z,19.50
2022-08-28T20:40:00.283Z,19.50
2022-08-28T20:42:35.302Z,19.50
2022-08-28T20:45:11.379Z,19.50
2022-08-28T20:47:45.977Z,19.50
2022-08-28T20:50:21.308Z,19.48
2022-08-28T20:52:55.610Z,19.50
2022-08-28T20:55:29.652Z,19.46
2022-08-28T20:58:03.527Z,19.44
2022-08-28T21:00:37.384Z,19.42
2022-08-28T21:03:12.327Z,19.44
2022-08-28T21:05:49.023Z,19.50
2022-08-28T21:08:23.309Z,19.40
2022-08-28T21:10:57.497Z,19.44
2022-08-28T21:13:32.232Z,19.40
2022-08-28T21:16:09.354Z,19.40
2022-08-28T21:18:59.291Z,19.40
2022-08-28T21:21:38.592Z,19.40
2022-08-28T21:24:16.339Z,19.40
2022-08-28T21:26:52.375Z,19.40
2022-08-28T21:29:26.832Z,19.34
2022-08-28T21:32:00.922Z,19.30
2022-08-28T21:34:34.877Z,19.30
2022-08-28T21:37:08.881Z,19.30
2022-08-28T21:39:42.755Z,19.30
2022-08-28T21:42:16.863Z,19.26
2022-08-28T21:44:52.192Z,19.20
2022-08-28T21:47:27.491Z,19.20
2022-08-28T21:50:02.615Z,19.20
2022-08-28T21:52:37.396Z,19.16
2022-08-28T21:55:17.651Z,19.10
2022-08-28T21:57:52.178Z,19.10
2022-08-28T22:00:27.089Z,19.00
2022-08-28T22:03:01.671Z,19.00
2022-08-28T22:05:35.431Z,19.00
2022-08-28T22:08:09.665Z,18.90
2022-08-28T22:10:45.632Z,18.90
2022-08-28T22:13:21.691Z,18.82
2022-08-28T22:15:55.741Z,18.80
2022-08-28T22:18:32.056Z,18.80
2022-08-28T22:21:28.959Z,18.80
2022-08-28T22:24:03.556Z,18.70
2022-08-28T22:26:38.429Z,18.70
2022-08-28T22:29:12.790Z,18.70
2022-08-28T22:31:47.096Z,18.68
2022-08-28T22:34:21.578Z,18.60
2022-08-28T22:36:55.789Z,18.60
2022-08-28T22:39:30.335Z,18.52
2022-08-28T22:42:04.356Z,18.50
2022-08-28T22:44:38.950Z,18.50
2022-08-28T22:47:13.047Z,18.50
2022-08-28T22:49:46.994Z,18.42
2022-08-28T22:52:21.442Z,18.40
2022-08-28T22:54:55.615Z,18.40
2022-08-28T22:57:30.051Z,18.40
2022-08-28T23:00:04.850Z,18.40
2022-08-28T23:02:39.274Z,18.30
2022-08-28T23:05:13.367Z,18.30
2022-08-28T23:07:47.254Z,18.20
2022-08-28T23:10:42.134Z,18.10
2022-08-28T23:13:19.638Z,18.10
2022-08-28T23:15:54.195Z,18.00
2022-08-28T23:18:28.634Z,17.90
2022-08-28T23:21:02.486Z,17.80
2022-08-28T23:23:36.374Z,17.76
2022-08-28T23:26:13.973Z,17.70
2022-08-28T23:28:47.966Z,17.60
2022-08-28T23:31:22.002Z,17.60
2022-08-28T23:33:56.328Z,17.54
2022-08-28T23:36:35.848Z,17.50
2022-08-28T23:39:10.458Z,17.50
2022-08-28T23:41:44.764Z,17.42
2022-08-28T23:44:20.355Z,17.40
2022-08-28T23:46:54.165Z,17.40
2022-08-28T23:49:30.153Z,17.30
2022-08-28T23:52:04.835Z,17.22
2022-08-28T23:54:38.646Z,17.20
2022-08-28T23:57:12.712Z,17.20
2022-08-28T23:59:46.464Z,17.10
